Panus — HGKM — position and weather

sailwx.info

Track history (hours):
 
Tides and Currents Weather Stations Pressure Air Temp Water Temp Dewpoint Dewpoint Depression Visibility Wind Speed Wind Dir Waves Ship Positions

Panus

Last reported at 2017-Oct-21 00:14 UTC. Time now 2017-Oct-22 04:56 UTC.
Position N 45°14' E 020°19'.

Length 143 m; draft 25.5 m.

Type: Cargo ship. MMSI: 243071113.

Date/timePositionNaut miles runAvg speedWind from/ knotsBaromVisibWave heightAir tempDewpointWater temp
2017-Oct-21 00:14N 45°14' E 020°19'1 3.4
2017-Oct-21 00:00N 45°13' E 020°19'2 3.5
2017-Oct-20 23:24N 45°11' E 020°18'2 3.3
2017-Oct-20 22:56N 45°10' E 020°17'1 3.4
2017-Oct-20 22:30N 45°09' E 020°17'1 2.7
2017-Oct-20 21:59N 45°07' E 020°17'4 2.7
2017-Oct-20 20:34N 45°04' E 020°20'0 2.8
2017-Oct-20 20:25N 45°04' E 020°21'1 2.8
2017-Oct-20 20:00N 45°03' E 020°21'1 2.7
2017-Oct-20 19:30N 45°01' E 020°22'1 2.4
2017-Oct-20 19:00N 45°00' E 020°21'2 3.0
2017-Oct-20 18:30N 44°60' E 020°19'2 3.0
2017-Oct-20 18:00N 44°59' E 020°17'1 3.0
2017-Oct-20 17:30N 44°57' E 020°18'2 3.2
2017-Oct-20 17:00N 44°56' E 020°19'1 3.0
2017-Oct-20 16:30N 44°55' E 020°20'2 3.1
2017-Oct-20 16:00N 44°53' E 020°21'2 3.1
2017-Oct-20 15:30N 44°52' E 020°22'2 3.0
2017-Oct-20 15:00N 44°51' E 020°24'2 3.2
2017-Oct-20 14:30N 44°51' E 020°26'2 1.8
2017-Oct-20 13:30N 44°50' E 020°28'0 0.0
2017-Oct-20 13:00N 44°50' E 020°28'1 1.0
2017-Oct-20 12:30N 44°50' E 020°28'0 0.0
2017-Oct-20 12:00N 44°50' E 020°28'0 0.0
2017-Oct-20 11:30N 44°50' E 020°28'0 0.0
2017-Oct-20 11:00N 44°50' E 020°28'2 3.2
2017-Oct-20 10:30N 44°50' E 020°30'2 3.4
2017-Oct-20 10:00N 44°50' E 020°32'2 3.4
2017-Oct-20 09:30N 44°51' E 020°34'2 3.3
2017-Oct-20 09:00N 44°51' E 020°37'2 3.2
2017-Oct-20 08:30N 44°50' E 020°38'2 3.2
2017-Oct-20 07:59N 44°49' E 020°38'2 3.7
2017-Oct-20 07:30N 44°47' E 020°38'2 3.3
2017-Oct-20 06:58N 44°45' E 020°38'2 3.4
2017-Oct-20 06:30N 44°44' E 020°40'3 3.3
2017-Oct-20 05:40N 44°42' E 020°42'10 3.0
2017-Oct-20 02:17N 44°41' E 020°57'1 3.5
2017-Oct-20 01:54N 44°42' E 020°58'19 3.2
2017-Oct-19 20:07N 44°48' E 021°23'0 3.8
2017-Oct-19 20:00N 44°48' E 021°23'2 3.4
2017-Oct-19 19:29N 44°46' E 021°25'2 3.6
2017-Oct-19 19:00N 44°47' E 021°28'2 1.2
2017-Oct-19 17:06N 44°46' E 021°31'0 0.5
2017-Oct-19 16:58N 44°46' E 021°31'2 3.5
2017-Oct-19 16:27N 44°46' E 021°33'2 3.5
2017-Oct-19 15:48N 44°45' E 021°36'1 3.8
2017-Oct-19 15:28N 44°44' E 021°37'2 3.4
2017-Oct-19 15:01N 44°43' E 021°38'2 3.5
2017-Oct-19 14:31N 44°41' E 021°40'2 0.1
2017-Oct-18 09:02N 44°40' E 021°42'0 5.2
2017-Oct-18 08:57N 44°40' E 021°41'2 4.7
2017-Oct-18 08:31N 44°41' E 021°39'4 4.5
2017-Oct-18 07:34N 44°45' E 021°36'0 4.9
2017-Oct-18 07:30N 44°45' E 021°36'3 4.9
2017-Oct-18 06:54N 44°46' E 021°32'22 4.3
2017-Oct-18 01:48N 44°43' E 021°02'3 5.1
2017-Oct-18 01:18N 44°42' E 020°58'15 4.3
2017-Oct-17 21:48N 44°46' E 020°38'2 5.4
2017-Oct-17 21:30N 44°48' E 020°38'3 5.2
2017-Oct-17 21:00N 44°51' E 020°38'2 4.9
2017-Oct-17 20:30N 44°51' E 020°35'3 5.5
2017-Oct-17 20:00N 44°50' E 020°31'3 5.5
2017-Oct-17 19:30N 44°50' E 020°28'3 5.8
2017-Oct-17 19:00N 44°51' E 020°24'3 5.7
2017-Oct-17 18:30N 44°53' E 020°21'3 5.8
2017-Oct-17 18:00N 44°56' E 020°19'3 5.9
2017-Oct-17 17:30N 44°59' E 020°17'3 5.5
2017-Oct-17 17:00N 45°00' E 020°21'3 5.4
2017-Oct-17 16:30N 45°03' E 020°21'7 5.8
2017-Oct-17 15:19N 45°09' E 020°17'2 4.5
2017-Oct-17 14:58N 45°10' E 020°17'2 4.3
2017-Oct-17 14:30N 45°12' E 020°19'  
2017-Oct-13 16:28N 45°12' E 020°19'8 2.5
2017-Oct-13 13:12N 45°04' E 020°20'1 2.5
2017-Oct-13 12:50N 45°03' E 020°21'1 2.5
2017-Oct-13 12:30N 45°02' E 020°22'1 2.6
2017-Oct-13 12:00N 45°01' E 020°22'1 2.0
2017-Oct-13 11:30N 45°00' E 020°21'1 2.5
2017-Oct-13 11:00N 44°60' E 020°20'1 2.8
2017-Oct-13 10:30N 44°59' E 020°18'1 2.7
2017-Oct-13 10:00N 44°58' E 020°17'2 3.0
2017-Oct-13 09:30N 44°56' E 020°18'1 2.9
2017-Oct-13 09:00N 44°55' E 020°20'1 2.8
2017-Oct-13 08:30N 44°54' E 020°21'1 3.0
2017-Oct-13 08:00N 44°53' E 020°22'1 2.9
2017-Oct-13 07:30N 44°52' E 020°23'2 3.0
2017-Oct-13 07:00N 44°51' E 020°25'1 3.0
2017-Oct-13 06:30N 44°50' E 020°27'2 3.1
2017-Oct-13 06:00N 44°50' E 020°29'2 3.2
2017-Oct-13 05:30N 44°50' E 020°31'2 3.3
2017-Oct-13 05:00N 44°50' E 020°33'2 3.3
2017-Oct-13 04:30N 44°51' E 020°35'2 3.2
2017-Oct-13 04:00N 44°51' E 020°38'2 3.3
2017-Oct-13 03:30N 44°50' E 020°39'2 3.3
2017-Oct-13 03:00N 44°48' E 020°38'1 1.5
2017-Oct-13 02:30N 44°47' E 020°38'0 0.0
2017-Oct-13 02:00N 44°47' E 020°38'0 0.0
2017-Oct-13 01:30N 44°47' E 020°38'0 0.0
2017-Oct-13 01:01N 44°47' E 020°38'0 0.0
2017-Oct-13 00:31N 44°47' E 020°38'0 0.0
2017-Oct-13 00:01N 44°47' E 020°38'0 0.0
2017-Oct-12 23:30N 44°47' E 020°38'0 0.0
2017-Oct-12 23:00N 44°47' E 020°38'2 2.5
2017-Oct-12 22:02N 44°45' E 020°39'0 3.2
2017-Oct-12 22:00N 44°45' E 020°39'37 1.7
2017-Oct-12 00:30N 44°46' E 021°31'0 0.0
2017-Oct-12 00:00N 44°46' E 021°31'0 0.0
2017-Oct-11 21:54N 44°46' E 021°31'0 0.0
2017-Oct-11 21:26N 44°46' E 021°31'  
Track history (hours):
 
Tides and Currents Weather Stations Pressure Air Temp Water Temp Dewpoint Dewpoint Depression Visibility Wind Speed Wind Dir Waves Ship Positions

Panus

Last reported at 2017-Oct-21 00:14 UTC. Time now 2017-Oct-22 04:56 UTC.
Position N 45°14' E 020°19'.

Length 143 m; draft 25.5 m.

Type: Cargo ship. MMSI: 243071113.

Date/timePositionNaut miles runAvg speedWind from/ knotsBaromVisibWave heightAir tempDewpointWater temp
2017-Oct-21 00:14N 45°14' E 020°19'1 3.4
2017-Oct-21 00:00N 45°13' E 020°19'2 3.5
2017-Oct-20 23:24N 45°11' E 020°18'2 3.3
2017-Oct-20 22:56N 45°10' E 020°17'1 3.4
2017-Oct-20 22:30N 45°09' E 020°17'1 2.7
2017-Oct-20 21:59N 45°07' E 020°17'4 2.7
2017-Oct-20 20:34N 45°04' E 020°20'0 2.8
2017-Oct-20 20:25N 45°04' E 020°21'1 2.8
2017-Oct-20 20:00N 45°03' E 020°21'1 2.7
2017-Oct-20 19:30N 45°01' E 020°22'1 2.4
2017-Oct-20 19:00N 45°00' E 020°21'2 3.0
2017-Oct-20 18:30N 44°60' E 020°19'2 3.0
2017-Oct-20 18:00N 44°59' E 020°17'1 3.0
2017-Oct-20 17:30N 44°57' E 020°18'2 3.2
2017-Oct-20 17:00N 44°56' E 020°19'1 3.0
2017-Oct-20 16:30N 44°55' E 020°20'2 3.1
2017-Oct-20 16:00N 44°53' E 020°21'2 3.1
2017-Oct-20 15:30N 44°52' E 020°22'2 3.0
2017-Oct-20 15:00N 44°51' E 020°24'2 3.2
2017-Oct-20 14:30N 44°51' E 020°26'2 1.8
2017-Oct-20 13:30N 44°50' E 020°28'0 0.0
2017-Oct-20 13:00N 44°50' E 020°28'1 1.0
2017-Oct-20 12:30N 44°50' E 020°28'0 0.0
2017-Oct-20 12:00N 44°50' E 020°28'0 0.0
2017-Oct-20 11:30N 44°50' E 020°28'0 0.0
2017-Oct-20 11:00N 44°50' E 020°28'2 3.2
2017-Oct-20 10:30N 44°50' E 020°30'2 3.4
2017-Oct-20 10:00N 44°50' E 020°32'2 3.4
2017-Oct-20 09:30N 44°51' E 020°34'2 3.3
2017-Oct-20 09:00N 44°51' E 020°37'2 3.2
2017-Oct-20 08:30N 44°50' E 020°38'2 3.2
2017-Oct-20 07:59N 44°49' E 020°38'2 3.7
2017-Oct-20 07:30N 44°47' E 020°38'2 3.3
2017-Oct-20 06:58N 44°45' E 020°38'2 3.4
2017-Oct-20 06:30N 44°44' E 020°40'3 3.3
2017-Oct-20 05:40N 44°42' E 020°42'10 3.0
2017-Oct-20 02:17N 44°41' E 020°57'1 3.5
2017-Oct-20 01:54N 44°42' E 020°58'19 3.2
2017-Oct-19 20:07N 44°48' E 021°23'0 3.8
2017-Oct-19 20:00N 44°48' E 021°23'2 3.4
2017-Oct-19 19:29N 44°46' E 021°25'2 3.6
2017-Oct-19 19:00N 44°47' E 021°28'2 1.2
2017-Oct-19 17:06N 44°46' E 021°31'0 0.5
2017-Oct-19 16:58N 44°46' E 021°31'2 3.5
2017-Oct-19 16:27N 44°46' E 021°33'2 3.5
2017-Oct-19 15:48N 44°45' E 021°36'1 3.8
2017-Oct-19 15:28N 44°44' E 021°37'2 3.4
2017-Oct-19 15:01N 44°43' E 021°38'2 3.5
2017-Oct-19 14:31N 44°41' E 021°40'2 0.1
2017-Oct-18 09:02N 44°40' E 021°42'0 5.2
2017-Oct-18 08:57N 44°40' E 021°41'2 4.7
2017-Oct-18 08:31N 44°41' E 021°39'4 4.5
2017-Oct-18 07:34N 44°45' E 021°36'0 4.9
2017-Oct-18 07:30N 44°45' E 021°36'3 4.9
2017-Oct-18 06:54N 44°46' E 021°32'22 4.3
2017-Oct-18 01:48N 44°43' E 021°02'3 5.1
2017-Oct-18 01:18N 44°42' E 020°58'15 4.3
2017-Oct-17 21:48N 44°46' E 020°38'2 5.4
2017-Oct-17 21:30N 44°48' E 020°38'3 5.2
2017-Oct-17 21:00N 44°51' E 020°38'2 4.9
2017-Oct-17 20:30N 44°51' E 020°35'3 5.5
2017-Oct-17 20:00N 44°50' E 020°31'3 5.5
2017-Oct-17 19:30N 44°50' E 020°28'3 5.8
2017-Oct-17 19:00N 44°51' E 020°24'3 5.7
2017-Oct-17 18:30N 44°53' E 020°21'3 5.8
2017-Oct-17 18:00N 44°56' E 020°19'3 5.9
2017-Oct-17 17:30N 44°59' E 020°17'3 5.5
2017-Oct-17 17:00N 45°00' E 020°21'3 5.4
2017-Oct-17 16:30N 45°03' E 020°21'7 5.8
2017-Oct-17 15:19N 45°09' E 020°17'2 4.5
2017-Oct-17 14:58N 45°10' E 020°17'2 4.3
2017-Oct-17 14:30N 45°12' E 020°19'  
2017-Oct-13 16:28N 45°12' E 020°19'8 2.5
2017-Oct-13 13:12N 45°04' E 020°20'1 2.5
2017-Oct-13 12:50N 45°03' E 020°21'1 2.5
2017-Oct-13 12:30N 45°02' E 020°22'1 2.6
2017-Oct-13 12:00N 45°01' E 020°22'1 2.0
2017-Oct-13 11:30N 45°00' E 020°21'1 2.5
2017-Oct-13 11:00N 44°60' E 020°20'1 2.8
2017-Oct-13 10:30N 44°59' E 020°18'1 2.7
2017-Oct-13 10:00N 44°58' E 020°17'2 3.0
2017-Oct-13 09:30N 44°56' E 020°18'1 2.9
2017-Oct-13 09:00N 44°55' E 020°20'1 2.8
2017-Oct-13 08:30N 44°54' E 020°21'1 3.0
2017-Oct-13 08:00N 44°53' E 020°22'1 2.9
2017-Oct-13 07:30N 44°52' E 020°23'2 3.0
2017-Oct-13 07:00N 44°51' E 020°25'1 3.0
2017-Oct-13 06:30N 44°50' E 020°27'2 3.1
2017-Oct-13 06:00N 44°50' E 020°29'2 3.2
2017-Oct-13 05:30N 44°50' E 020°31'2 3.3
2017-Oct-13 05:00N 44°50' E 020°33'2 3.3
2017-Oct-13 04:30N 44°51' E 020°35'2 3.2
2017-Oct-13 04:00N 44°51' E 020°38'2 3.3
2017-Oct-13 03:30N 44°50' E 020°39'2 3.3
2017-Oct-13 03:00N 44°48' E 020°38'1 1.5
2017-Oct-13 02:30N 44°47' E 020°38'0 0.0
2017-Oct-13 02:00N 44°47' E 020°38'0 0.0
2017-Oct-13 01:30N 44°47' E 020°38'0 0.0
2017-Oct-13 01:01N 44°47' E 020°38'0 0.0
2017-Oct-13 00:31N 44°47' E 020°38'0 0.0
2017-Oct-13 00:01N 44°47' E 020°38'0 0.0
2017-Oct-12 23:30N 44°47' E 020°38'0 0.0
2017-Oct-12 23:00N 44°47' E 020°38'2 2.5
2017-Oct-12 22:02N 44°45' E 020°39'0 3.2
2017-Oct-12 22:00N 44°45' E 020°39'37 1.7
2017-Oct-12 00:30N 44°46' E 021°31'0 0.0
2017-Oct-12 00:00N 44°46' E 021°31'0 0.0
2017-Oct-11 21:54N 44°46' E 021°31'0 0.0
2017-Oct-11 21:26N 44°46' E 021°31'  

Dump ship's entire track history